createdAt,value
2022-11-01T00:02:10.281Z,100.00
2022-11-01T00:04:36.935Z,100.00
2022-11-01T00:07:03.846Z,100.00
2022-11-01T00:09:30.512Z,100.00
2022-11-01T00:11:57.210Z,100.00
2022-11-01T00:14:23.802Z,100.00
2022-11-01T00:16:50.926Z,100.00
2022-11-01T00:19:17.738Z,100.00
2022-11-01T00:21:44.478Z,100.00
2022-11-01T00:24:11.325Z,100.00
2022-11-01T00:26:37.983Z,100.00
2022-11-01T00:29:04.768Z,100.00
2022-11-01T00:31:31.394Z,100.00
2022-11-01T00:33:58.043Z,100.00
2022-11-01T00:36:24.622Z,100.00
2022-11-01T00:38:51.846Z,100.00
2022-11-01T00:41:20.931Z,100.00
2022-11-01T00:43:47.984Z,100.00
2022-11-01T00:46:14.735Z,100.00
2022-11-01T00:48:41.314Z,100.00
2022-11-01T00:51:08.322Z,100.00
2022-11-01T00:53:34.912Z,100.00
2022-11-01T00:56:03.077Z,100.00
2022-11-01T00:58:29.853Z,100.00
2022-11-01T01:00:56.897Z,100.00
2022-11-01T01:05:56.680Z,100.00
2022-11-01T01:08:24.302Z,100.00
2022-11-01T01:10:50.996Z,100.00
2022-11-01T01:13:18.111Z,100.00
2022-11-01T01:15:44.846Z,100.00
2022-11-01T01:18:11.765Z,100.00
2022-11-01T01:20:38.510Z,100.00
2022-11-01T01:23:05.511Z,100.00
2022-11-01T01:25:32.524Z,100.00
2022-11-01T01:27:59.468Z,100.00
2022-11-01T01:30:26.204Z,100.00
2022-11-01T01:32:52.817Z,100.00
2022-11-01T01:35:19.431Z,100.00
2022-11-01T01:37:46.074Z,100.00
2022-11-01T01:40:12.715Z,100.00
2022-11-01T01:42:42.073Z,100.00
2022-11-01T01:45:16.989Z,100.00
2022-11-01T01:47:46.495Z,100.00
2022-11-01T01:50:27.278Z,100.00
2022-11-01T01:53:07.058Z,100.00
2022-11-01T01:56:01.291Z,100.00
2022-11-01T01:58:35.649Z,100.00
2022-11-01T02:01:02.329Z,100.00
2022-11-01T02:03:32.887Z,100.00
2022-11-01T02:06:12.520Z,100.00
2022-11-01T02:08:43.240Z,100.00
2022-11-01T02:11:11.318Z,100.00
2022-11-01T02:13:38.062Z,100.00
2022-11-01T02:16:04.651Z,100.00
2022-11-01T02:18:53.391Z,100.00
2022-11-01T02:21:55.011Z,100.00
2022-11-01T02:25:11.715Z,100.00
2022-11-01T02:28:00.163Z,100.00
2022-11-01T02:33:34.757Z,100.00
2022-11-01T02:36:23.089Z,100.00
2022-11-01T02:39:01.789Z,100.00
2022-11-01T02:41:36.668Z,100.00
2022-11-01T02:44:27.255Z,100.00
2022-11-01T02:47:01.755Z,100.00
2022-11-01T02:49:47.605Z,100.00
2022-11-01T02:52:20.749Z,100.00
2022-11-01T02:54:56.073Z,100.00
2022-11-01T02:57:41.103Z,100.00
2022-11-01T03:00:23.109Z,100.00
2022-11-01T03:03:11.614Z,100.00
2022-11-01T03:06:03.163Z,100.00
2022-11-01T03:08:35.493Z,100.00
2022-11-01T03:11:18.109Z,100.00
2022-11-01T03:14:03.577Z,100.00
2022-11-01T03:16:38.991Z,100.00
2022-11-01T03:19:13.572Z,100.00
2022-11-01T03:21:46.896Z,100.00
2022-11-01T03:24:13.505Z,100.00
2022-11-01T03:26:43.249Z,100.00
2022-11-01T03:29:11.870Z,100.00
2022-11-01T03:31:41.023Z,100.00
2022-11-01T03:34:15.225Z,100.00
2022-11-01T03:36:51.735Z,100.00
2022-11-01T03:39:27.118Z,100.00
2022-11-01T03:41:58.725Z,100.00
2022-11-01T03:44:27.213Z,99.88
2022-11-01T03:46:53.821Z,99.63
2022-11-01T03:49:20.583Z,99.69
2022-11-01T03:51:48.037Z,99.66
2022-11-01T03:54:14.645Z,99.60
2022-11-01T03:56:41.295Z,98.59
2022-11-01T03:59:09.965Z,98.30
2022-11-01T04:01:37.146Z,98.42
2022-11-01T04:04:03.877Z,100.00
2022-11-01T04:06:30.533Z,100.00
2022-11-01T04:08:57.219Z,100.00
2022-11-01T04:11:23.884Z,100.00
2022-11-01T04:13:50.551Z,100.00
2022-11-01T04:16:35.745Z,100.00
2022-11-01T04:19:21.034Z,95.17
2022-11-01T04:21:47.668Z,94.76
2022-11-01T04:24:21.200Z,93.88
2022-11-01T04:29:23.796Z,91.74
2022-11-01T04:31:50.465Z,90.63
2022-11-01T04:34:37.016Z,89.77
2022-11-01T04:37:03.684Z,90.27
2022-11-01T04:39:30.222Z,89.78
2022-11-01T04:41:56.874Z,90.04
2022-11-01T04:44:23.487Z,89.42
2022-11-01T04:49:21.357Z,87.95
2022-11-01T04:51:47.927Z,87.65
2022-11-01T04:54:14.511Z,87.74
2022-11-01T04:56:41.085Z,87.72
2022-11-01T04:59:07.769Z,87.95
2022-11-01T05:01:34.495Z,87.79
2022-11-01T05:04:01.150Z,87.08
2022-11-01T05:06:29.077Z,86.63
2022-11-01T05:08:55.801Z,86.73
2022-11-01T05:11:25.863Z,85.94
2022-11-01T05:13:52.835Z,85.47
2022-11-01T05:16:20.749Z,84.66
2022-11-01T05:18:48.145Z,83.64
2022-11-01T05:21:15.047Z,83.46
2022-11-01T05:23:41.597Z,83.37
2022-11-01T05:26:08.221Z,83.03
2022-11-01T05:28:35.000Z,82.94
2022-11-01T05:31:01.692Z,83.04
2022-11-01T05:33:28.460Z,82.53
2022-11-01T05:35:54.987Z,83.08
2022-11-01T05:38:21.611Z,82.87
2022-11-01T05:40:48.316Z,83.13
2022-11-01T05:43:15.050Z,82.59
2022-11-01T05:45:41.836Z,82.74
2022-11-01T05:48:08.585Z,83.17
2022-11-01T05:50:35.291Z,83.04
2022-11-01T05:53:07.122Z,83.38
2022-11-01T05:55:33.773Z,84.32
2022-11-01T05:58:00.589Z,83.82
2022-11-01T06:00:27.272Z,85.15
2022-11-01T06:02:53.889Z,84.85
2022-11-01T06:05:20.521Z,85.16
2022-11-01T06:07:47.052Z,85.53
2022-11-01T06:10:13.654Z,86.06
2022-11-01T06:12:40.296Z,86.13
2022-11-01T06:15:07.468Z,86.74
2022-11-01T06:17:34.157Z,86.01
2022-11-01T06:20:00.746Z,86.05
2022-11-01T06:24:59.768Z,86.33
2022-11-01T06:27:26.343Z,87.09
2022-11-01T06:29:52.921Z,88.63
2022-11-01T06:32:19.550Z,87.95
2022-11-01T06:34:46.144Z,89.55
2022-11-01T06:37:13.179Z,89.86
2022-11-01T06:39:39.979Z,89.13
2022-11-01T06:42:06.703Z,90.64
2022-11-01T06:44:33.364Z,91.61
2022-11-01T06:46:59.931Z,92.64
2022-11-01T06:49:26.523Z,94.24
2022-11-01T06:51:53.121Z,93.46
2022-11-01T06:54:19.694Z,92.94
2022-11-01T06:56:49.088Z,92.01
2022-11-01T06:59:16.942Z,92.31
2022-11-01T07:01:44.302Z,92.79
2022-11-01T07:09:36.057Z,95.27
2022-11-01T07:12:02.659Z,97.82
2022-11-01T07:14:31.048Z,97.90
2022-11-01T07:16:57.683Z,97.51
2022-11-01T07:19:24.243Z,97.59
2022-11-01T07:21:50.971Z,97.85
2022-11-01T07:24:17.581Z,97.57
2022-11-01T07:26:44.137Z,97.90
2022-11-01T07:29:10.698Z,100.00
2022-11-01T07:31:38.996Z,100.00
2022-11-01T07:34:05.983Z,100.00
2022-11-01T07:36:32.925Z,100.00
2022-11-01T07:38:59.578Z,100.00
2022-11-01T07:41:26.980Z,100.00
2022-11-01T07:43:53.648Z,100.00
2022-11-01T07:46:20.255Z,100.00
2022-11-01T07:48:46.898Z,100.00
2022-11-01T07:51:13.571Z,100.00
2022-11-01T07:53:40.117Z,100.00
2022-11-01T07:56:08.102Z,100.00
2022-11-01T07:58:34.841Z,99.69
2022-11-01T08:01:01.694Z,99.81
2022-11-01T08:03:28.422Z,100.00
2022-11-01T08:05:56.054Z,100.00
2022-11-01T08:08:22.691Z,97.91
2022-11-01T08:10:49.316Z,97.70
2022-11-01T08:13:21.535Z,97.78
2022-11-01T08:15:50.121Z,98.56
2022-11-01T08:18:18.726Z,98.94
2022-11-01T08:20:45.297Z,99.15
2022-11-01T08:23:12.149Z,99.03
2022-11-01T08:28:16.342Z,98.39
2022-11-01T08:30:44.622Z,97.79
2022-11-01T08:33:11.859Z,97.70
2022-11-01T08:35:39.014Z,98.19
2022-11-01T08:38:06.077Z,96.25
2022-11-01T08:40:33.741Z,96.26
2022-11-01T08:43:01.124Z,97.63
2022-11-01T08:45:28.567Z,97.92
2022-11-01T08:48:03.531Z,96.74
2022-11-01T08:50:30.958Z,96.66
2022-11-01T08:52:57.656Z,96.36
2022-11-01T08:55:24.667Z,95.31
2022-11-01T08:57:51.327Z,94.89
2022-11-01T09:00:18.455Z,96.00
2022-11-01T09:02:45.496Z,94.75
2022-11-01T09:05:12.168Z,95.70
2022-11-01T09:07:39.673Z,96.57
2022-11-01T09:10:07.044Z,94.84
2022-11-01T09:12:34.460Z,94.05
2022-11-01T09:15:01.210Z,94.00
2022-11-01T09:17:28.291Z,93.14
2022-11-01T09:19:55.026Z,92.25
2022-11-01T09:22:22.027Z,94.22
2022-11-01T09:24:48.640Z,91.76
2022-11-01T09:32:21.396Z,92.75
2022-11-01T09:34:49.321Z,94.02
2022-11-01T09:37:16.887Z,93.63
2022-11-01T09:39:43.439Z,91.48
2022-11-01T09:42:23.150Z,91.22
2022-11-01T09:44:54.079Z,90.47
2022-11-01T09:47:23.804Z,89.12
2022-11-01T09:49:59.057Z,87.90
2022-11-01T09:52:25.972Z,88.24
2022-11-01T09:54:52.741Z,86.60
2022-11-01T09:57:46.081Z,84.59
2022-11-01T10:00:18.326Z,83.19
2022-11-01T10:06:19.422Z,81.53
2022-11-01T10:08:54.468Z,80.01
2022-11-01T10:11:29.955Z,78.82
2022-11-01T10:14:06.045Z,77.85
2022-11-01T10:16:38.015Z,78.07
2022-11-01T10:19:16.327Z,78.08
2022-11-01T10:21:51.467Z,79.79
2022-11-01T10:24:24.681Z,78.16
2022-11-01T10:26:59.956Z,78.05
2022-11-01T10:29:32.053Z,78.79
2022-11-01T10:31:59.585Z,77.31
2022-11-01T10:34:39.810Z,77.30
2022-11-01T10:37:20.401Z,78.25
2022-11-01T10:39:58.878Z,79.31
2022-11-01T10:42:29.968Z,79.66
2022-11-01T10:45:01.338Z,78.21
2022-11-01T10:47:28.543Z,78.71
2022-11-01T10:50:06.113Z,79.62
2022-11-01T10:59:02.857Z,74.09
2022-11-01T11:01:35.255Z,76.56
2022-11-01T11:04:05.259Z,75.71
2022-11-01T11:06:33.782Z,77.09
2022-11-01T11:09:01.539Z,76.86
2022-11-01T11:11:39.173Z,77.04
2022-11-01T11:14:08.104Z,76.41
2022-11-01T11:16:47.967Z,75.76
2022-11-01T11:19:19.638Z,74.91
2022-11-01T11:21:51.752Z,78.01
2022-11-01T11:24:19.980Z,77.75
2022-11-01T11:26:54.073Z,78.71
2022-11-01T11:29:33.233Z,77.56
2022-11-01T11:32:01.386Z,77.80
2022-11-01T11:34:31.630Z,76.64
2022-11-01T11:37:00.897Z,76.42
2022-11-01T11:39:28.560Z,78.41
2022-11-01T11:42:11.521Z,78.87
2022-11-01T11:44:42.461Z,77.39
2022-11-01T11:47:26.899Z,75.00
2022-11-01T11:49:54.408Z,75.14
2022-11-01T11:52:28.376Z,74.91
2022-11-01T11:54:55.406Z,74.38
2022-11-01T11:57:29.911Z,75.63
2022-11-01T11:59:59.880Z,75.82
2022-11-01T12:02:27.865Z,73.76
2022-11-01T12:05:04.012Z,76.00
2022-11-01T12:07:52.062Z,76.13
2022-11-01T12:10:39.872Z,77.57
2022-11-01T12:13:28.643Z,78.29
2022-11-01T12:16:24.842Z,78.15
2022-11-01T12:18:55.675Z,76.43
2022-11-01T12:21:26.718Z,75.58
2022-11-01T12:24:06.333Z,76.34
2022-11-01T12:26:36.452Z,77.70
2022-11-01T12:29:15.991Z,78.20
2022-11-01T12:31:44.591Z,79.20
2022-11-01T12:34:24.814Z,79.01
2022-11-01T12:37:07.642Z,80.14
2022-11-01T12:39:46.104Z,81.05
2022-11-01T12:42:22.728Z,82.00
2022-11-01T12:44:52.936Z,80.53
2022-11-01T12:47:37.272Z,80.48
2022-11-01T12:50:15.971Z,80.88
2022-11-01T12:52:58.669Z,81.03
2022-11-01T12:55:42.499Z,81.79
2022-11-01T12:58:16.215Z,82.41
2022-11-01T13:00:42.762Z,81.80
2022-11-01T13:03:27.141Z,80.38
2022-11-01T13:06:05.441Z,79.63
2022-11-01T13:08:42.376Z,79.51
2022-11-01T13:11:24.310Z,78.31
2022-11-01T13:14:06.388Z,77.96
2022-11-01T13:16:39.266Z,78.24
2022-11-01T13:19:18.672Z,77.31
2022-11-01T13:21:56.136Z,76.97
2022-11-01T13:24:45.099Z,76.73
2022-11-01T13:27:27.851Z,76.11
2022-11-01T13:30:01.804Z,77.42
2022-11-01T13:32:38.330Z,77.50
2022-11-01T13:35:34.329Z,76.93
2022-11-01T13:38:27.339Z,76.95
2022-11-01T13:41:38.905Z,78.43
2022-11-01T13:44:17.206Z,77.43
2022-11-01T13:47:01.156Z,77.79
2022-11-01T13:52:27.160Z,76.56
2022-11-01T13:55:12.119Z,76.31
2022-11-01T13:57:44.876Z,76.12
2022-11-01T14:00:42.921Z,75.93
2022-11-01T14:03:30.617Z,74.80
2022-11-01T14:09:18.054Z,73.79
2022-11-01T14:11:48.530Z,75.16
2022-11-01T14:14:30.681Z,75.14
2022-11-01T14:17:18.671Z,75.79
2022-11-01T14:20:10.895Z,75.00
2022-11-01T14:22:38.774Z,76.68
2022-11-01T14:25:11.897Z,76.26
2022-11-01T14:27:40.872Z,76.39
2022-11-01T14:30:15.573Z,75.41
2022-11-01T14:32:54.067Z,76.51
2022-11-01T14:35:35.648Z,77.51
2022-11-01T14:38:13.766Z,76.90
2022-11-01T14:40:48.623Z,78.25
2022-11-01T14:43:24.287Z,76.27
2022-11-01T14:45:59.593Z,77.53
2022-11-01T14:48:35.933Z,77.23
2022-11-01T14:51:10.763Z,76.89
2022-11-01T14:53:38.198Z,78.21
2022-11-01T14:56:33.098Z,77.74
2022-11-01T14:59:25.096Z,77.34
2022-11-01T15:01:59.441Z,78.59
2022-11-01T15:04:31.724Z,77.62
2022-11-01T15:07:00.386Z,77.09
2022-11-01T15:09:30.535Z,77.74
2022-11-01T15:12:07.065Z,78.54
2022-11-01T15:14:43.996Z,79.87
2022-11-01T15:17:40.506Z,79.45
2022-11-01T15:20:15.041Z,81.23
2022-11-01T15:22:42.913Z,82.74
2022-11-01T15:25:20.701Z,82.70
2022-11-01T15:27:48.298Z,82.20
2022-11-01T15:30:27.306Z,82.41
2022-11-01T15:33:18.918Z,81.88
2022-11-01T15:35:54.089Z,82.30
2022-11-01T15:38:21.329Z,81.97
2022-11-01T15:40:48.854Z,82.22
2022-11-01T15:43:27.395Z,81.95
2022-11-01T15:45:58.717Z,82.05
2022-11-01T15:48:29.496Z,82.69
2022-11-01T15:51:06.934Z,83.67
2022-11-01T15:53:37.072Z,85.40
2022-11-01T15:56:12.873Z,85.07
2022-11-01T15:58:51.323Z,85.04
2022-11-01T16:01:22.230Z,85.22
2022-11-01T16:04:08.583Z,83.62
2022-11-01T16:06:53.725Z,85.75
2022-11-01T16:09:46.242Z,85.34
2022-11-01T16:12:25.970Z,84.57
2022-11-01T16:14:59.320Z,85.98
2022-11-01T16:17:35.696Z,86.81
2022-11-01T16:20:06.654Z,88.81
2022-11-01T16:22:42.245Z,88.22
2022-11-01T16:25:10.210Z,88.63
2022-11-01T16:28:02.785Z,89.73
2022-11-01T16:30:45.326Z,89.40
2022-11-01T16:33:22.427Z,89.30
2022-11-01T16:36:17.902Z,89.30
2022-11-01T16:38:46.531Z,90.65
2022-11-01T16:41:17.464Z,89.26
2022-11-01T16:43:45.138Z,91.30
2022-11-01T16:46:11.811Z,91.60
2022-11-01T16:48:53.432Z,92.40
2022-11-01T16:51:21.544Z,92.20
2022-11-01T16:53:48.126Z,91.02
2022-11-01T16:59:09.115Z,91.05
2022-11-01T17:01:36.548Z,91.45
2022-11-01T17:04:04.645Z,90.69
2022-11-01T17:06:36.147Z,92.21
2022-11-01T17:09:11.701Z,93.29
2022-11-01T17:11:38.294Z,93.05
2022-11-01T17:14:04.842Z,92.93
2022-11-01T17:16:31.513Z,93.45
2022-11-01T17:19:00.179Z,93.86
2022-11-01T17:21:30.473Z,94.10
2022-11-01T17:23:57.470Z,94.35
2022-11-01T17:28:55.827Z,93.38
2022-11-01T17:31:22.662Z,92.99
2022-11-01T17:33:49.160Z,93.38
2022-11-01T17:36:17.116Z,94.01
2022-11-01T17:38:45.048Z,94.20
2022-11-01T17:41:17.433Z,92.65
2022-11-01T17:43:44.219Z,93.78
2022-11-01T17:46:17.408Z,94.61
2022-11-01T17:48:44.014Z,95.15
2022-11-01T17:51:10.609Z,95.28
2022-11-01T17:53:39.507Z,95.85
2022-11-01T17:56:06.626Z,94.91
2022-11-01T17:58:33.247Z,96.53
2022-11-01T18:03:32.027Z,98.19
2022-11-01T18:06:01.723Z,97.96
2022-11-01T18:08:33.585Z,96.78
2022-11-01T18:11:09.048Z,99.04
2022-11-01T18:13:46.581Z,97.70
2022-11-01T18:16:26.782Z,97.50
2022-11-01T18:19:12.567Z,96.35
2022-11-01T18:21:54.311Z,92.68
2022-11-01T18:24:46.449Z,93.53
2022-11-01T18:27:18.472Z,96.47
2022-11-01T18:29:48.536Z,97.78
2022-11-01T18:32:34.978Z,97.59
2022-11-01T18:35:21.176Z,97.57
2022-11-01T18:38:05.773Z,98.23
2022-11-01T18:40:44.151Z,99.41
2022-11-01T18:43:10.885Z,99.88
2022-11-01T18:45:57.682Z,99.62
2022-11-01T18:48:28.874Z,99.28
2022-11-01T18:51:04.912Z,97.80
2022-11-01T18:53:34.029Z,98.01
2022-11-01T18:56:14.062Z,99.81
2022-11-01T18:58:41.435Z,99.69
2022-11-01T19:01:08.664Z,99.27
2022-11-01T19:03:35.854Z,100.00
2022-11-01T19:06:22.266Z,97.46
2022-11-01T19:08:54.275Z,96.47
2022-11-01T19:11:21.083Z,94.99
2022-11-01T19:13:50.590Z,96.50
2022-11-01T19:16:18.890Z,97.85
2022-11-01T19:18:48.177Z,98.11
2022-11-01T19:21:17.466Z,96.94
2022-11-01T19:23:51.579Z,96.25
2022-11-01T19:26:18.142Z,96.12
2022-11-01T19:28:44.848Z,96.95
2022-11-01T19:31:32.779Z,99.45
2022-11-01T19:34:09.181Z,100.00
2022-11-01T19:39:26.474Z,100.00
2022-11-01T19:41:55.719Z,100.00
2022-11-01T19:44:24.749Z,95.26
2022-11-01T19:46:57.583Z,96.37
2022-11-01T19:49:30.252Z,94.53
2022-11-01T19:52:12.236Z,94.53
2022-11-01T19:54:41.619Z,94.57
2022-11-01T19:57:31.487Z,94.41
2022-11-01T20:00:19.385Z,92.37
2022-11-01T20:02:48.245Z,93.21
2022-11-01T20:05:33.189Z,94.06
2022-11-01T20:08:08.880Z,92.38
2022-11-01T20:10:35.409Z,93.01
2022-11-01T20:13:02.343Z,92.99
2022-11-01T20:15:29.952Z,93.04
2022-11-01T20:17:56.565Z,93.35
2022-11-01T20:20:25.182Z,92.92
2022-11-01T20:23:06.165Z,92.36
2022-11-01T20:25:39.449Z,93.93
2022-11-01T20:28:06.574Z,95.12
2022-11-01T20:30:33.637Z,94.13
2022-11-01T20:33:00.362Z,95.71
2022-11-01T20:35:26.986Z,94.98
2022-11-01T20:37:53.586Z,95.63
2022-11-01T20:40:24.990Z,95.76
2022-11-01T20:42:52.528Z,94.96
2022-11-01T20:45:19.304Z,96.58
2022-11-01T20:47:46.638Z,96.26
2022-11-01T20:50:15.165Z,95.96
2022-11-01T20:52:42.532Z,95.60
2022-11-01T20:55:10.888Z,97.23
2022-11-01T20:57:37.873Z,93.96
2022-11-01T21:00:06.368Z,95.13
2022-11-01T21:02:33.045Z,95.84
2022-11-01T21:05:15.374Z,96.47
2022-11-01T21:07:46.869Z,96.48
2022-11-01T21:10:26.181Z,96.87
2022-11-01T21:12:53.066Z,97.56
2022-11-01T21:15:39.499Z,97.43
2022-11-01T21:18:08.556Z,98.02
2022-11-01T21:20:37.905Z,97.47
2022-11-01T21:23:37.396Z,96.59
2022-11-01T21:26:15.733Z,96.59
2022-11-01T21:28:46.660Z,96.48
2022-11-01T21:31:13.197Z,96.77
2022-11-01T21:33:41.350Z,97.67
2022-11-01T21:36:28.165Z,97.10
2022-11-01T21:39:00.086Z,97.67
2022-11-01T21:41:34.697Z,96.94
2022-11-01T21:44:15.300Z,97.06
2022-11-01T21:46:45.588Z,97.37
2022-11-01T21:49:33.170Z,97.26
2022-11-01T21:52:02.372Z,97.00
2022-11-01T21:54:30.686Z,97.04
2022-11-01T21:56:57.603Z,96.29
2022-11-01T21:59:24.774Z,96.79
2022-11-01T22:01:51.677Z,96.62
2022-11-01T22:04:18.671Z,96.00
2022-11-01T22:06:47.925Z,96.48
2022-11-01T22:11:47.283Z,97.14
2022-11-01T22:14:13.817Z,97.51
2022-11-01T22:16:40.427Z,96.15
2022-11-01T22:19:07.396Z,96.09
2022-11-01T22:21:34.733Z,95.76
2022-11-01T22:24:03.365Z,96.41
2022-11-01T22:26:30.497Z,95.78
2022-11-01T22:28:57.250Z,95.34
2022-11-01T22:31:24.241Z,94.76
2022-11-01T22:33:55.659Z,94.95
2022-11-01T22:36:30.573Z,95.34
2022-11-01T22:39:02.095Z,93.70
2022-11-01T22:41:34.319Z,92.09
2022-11-01T22:44:17.390Z,92.17
2022-11-01T22:46:52.334Z,92.36
2022-11-01T22:49:34.054Z,92.13
2022-11-01T22:52:15.827Z,93.05
2022-11-01T22:54:48.959Z,93.06
2022-11-01T22:57:21.589Z,93.19
2022-11-01T23:00:01.879Z,92.61
2022-11-01T23:02:33.738Z,92.76
2022-11-01T23:05:03.176Z,93.57
2022-11-01T23:07:32.493Z,93.80
2022-11-01T23:10:05.434Z,93.27
2022-11-01T23:12:54.764Z,94.27
2022-11-01T23:15:30.096Z,95.24
2022-11-01T23:18:13.788Z,94.66
2022-11-01T23:20:41.300Z,94.74
2022-11-01T23:23:17.517Z,94.86
2022-11-01T23:25:44.171Z,94.67
2022-11-01T23:28:13.042Z,95.23
2022-11-01T23:30:41.959Z,94.83
2022-11-01T23:33:12.364Z,95.74
2022-11-01T23:35:39.071Z,95.60
2022-11-01T23:38:18.566Z,97.00
2022-11-01T23:40:45.691Z,97.23
2022-11-01T23:43:33.303Z,97.51
2022-11-01T23:46:00.699Z,96.15
2022-11-01T23:48:27.850Z,96.29
2022-11-01T23:50:54.564Z,94.98
2022-11-01T23:53:32.126Z,94.50
2022-11-01T23:56:00.207Z,94.94
